Terminal Aerodrome Forecast
Issued by NWS

Home | Current Version | Previous Version | Text Only | Print | Product List | Glossary Off
Versions: 1 2 3 4 5 6 7 8 9 10 11 12

000
FTUS45 KGGW 261720
TAFGDV
TAF
KGDV 261720Z 2618/2718 21007KT P6SM VCSH BKN090
     FM270200 30006KT P6SM BKN090
     FM270600 32005KT P6SM FEW100
     FM271200 22004KT P6SM FEW250=

USA.gov is the U.S. government's official web portal to all federal, state and local government web resources and services.